PDT,Max TemperatureF,Mean TemperatureF,Min TemperatureF,Max Dew PointF,MeanDew PointF,Min DewpointF,Max Humidity, Mean Humidity, Min Humidity, Max Sea Level PressureIn, Mean Sea Level PressureIn, Min Sea Level PressureIn, Max VisibilityMiles, Mean VisibilityMiles, Min VisibilityMiles, Max Wind SpeedMPH, Mean Wind SpeedMPH, Max Gust SpeedMPH,PrecipitationIn, CloudCover, Events, WindDirDegrees
2013-3-1,51,46,41,46,44,39,87,83,76,30.25,30.24,30.22,15,9,4,16,12,,0.16,8,Rain,123
2013-3-2,50,46,42,45,41,32,87,80,66,30.23,30.11,30.02,15,8,2,28,12,37,0.24,7,Rain,175
2013-3-3,47,42,37,34,32,30,76,67,47,30.32,30.24,30.14,20,17,15,28,19,34,0.00,1,,298
2013-3-4,45,38,30,36,30,24,81,68,43,30.33,30.19,30.00,20,20,19,13,5,,0.00,4,,349
2013-3-5,47,42,36,36,30,25,81,62,37,30.00,29.88,29.81,20,16,12,14,5,22,0.08,8,Rain,354
2013-3-6,45,42,39,37,36,34,81,75,58,29.87,29.72,29.65,20,14,10,20,9,23,0.02,8,Rain,294
2013-3-7,46,42,38,37,36,33,87,77,62,30.13,30.04,29.88,20,13,7,13,8,,0.20,7,Rain,101
2013-3-8,47,38,30,39,34,28,87,76,56,30.24,30.16,30.11,20,20,19,8,3,,0.00,3,Fog,267
2013-3-9,52,42,33,37,34,30,81,67,38,30.49,30.40,30.25,20,16,8,10,5,,0.00,3,,113
2013-3-10,47,43,39,38,35,32,81,71,57,30.49,30.46,30.43,20,14,12,9,7,,0.00,7,Rain,120
2013-3-11,49,44,38,37,36,35,81,72,58,30.45,30.36,30.16,20,13,7,17,6,,0.08,7,Rain,91
2013-3-12,52,46,40,45,41,34,87,80,71,30.14,30.03,29.98,12,8,4,16,12,23,0.28,8,Rain,105
2013-3-13,51,50,49,45,44,43,82,77,70,30.16,30.10,30.02,15,9,2,18,12,24,0.43,8,Rain,128
2013-3-14,51,49,47,45,43,37,82,79,62,30.11,30.05,30.01,15,11,5,14,7,,0.28,8,Rain,101
2013-3-15,54,50,46,45,42,41,82,76,67,30.20,30.16,30.12,15,13,6,10,7,,0.04,8,Rain,91
2013-3-16,50,44,39,45,39,34,100,80,54,30.11,29.94,29.82,20,17,8,26,11,34,0.04,6,Fog-Rain,167
2013-3-17,47,44,40,36,33,30,81,66,44,30.14,30.07,29.91,20,18,15,29,19,34,0.00,4,,263
2013-3-18,48,44,40,37,34,28,87,68,41,30.25,30.13,30.03,20,17,10,28,13,34,0.03,4,Rain,235
2013-3-19,51,42,34,41,33,28,93,73,32,30.25,29.99,29.61,20,15,8,18,9,36,0.20,7,Rain,100
2013-3-20,53,46,39,46,40,34,93,82,62,29.89,29.52,29.30,20,12,6,39,18,50,0.20,7,Rain,143
2013-3-21,47,42,37,37,30,27,87,63,42,30.18,30.10,29.93,15,15,15,21,12,25,0.00,3,,267
2013-3-22,45,40,34,34,31,28,87,69,48,30.38,30.28,30.17,,,,25,16,32,0.00,2,,321
2013-3-23,49,40,32,32,30,27,87,66,40,30.41,30.38,30.33,20,18,15,12,7,,0.00,5,,126
2013-3-24,48,42,37,36,32,28,76,64,43,30.33,30.26,30.15,20,20,19,8,6,,0.00,6,,74
2013-3-25,52,46,41,39,34,30,76,62,46,30.16,30.08,29.98,20,20,19,10,4,,0.00,4,,305
2013-3-26,53,46,40,45,39,34,87,73,55,30.04,30.01,29.99,20,19,15,8,4,,0.00,6,,310
2013-3-27,55,47,39,45,41,36,93,76,63,30.01,29.99,29.97,15,15,15,12,3,,0.00,6,,312
2013-3-28,57,50,43,46,43,39,93,73,52,30.14,30.08,30.02,20,20,19,9,3,,0.00,3,,246
2013-3-29,56,49,42,46,43,39,87,77,63,30.28,30.24,30.15,20,20,19,9,5,,0.00,2,,330
2013-3-30,56,48,39,48,43,37,87,79,61,30.30,30.24,30.13,20,20,19,13,5,,0.00,2,,311
2013-3-31,60,50,39,48,44,36,87,75,51,30.11,30.03,29.93,20,20,19,13,5,,0.00,1,,308